Childress Municipal Airport
KCDS : now visible

Airfield :











YOU CAN JOIN US ON...

 
LOGIN :

Register | Disclaimer

   EN    FR    IT 

 









Legend :    VFR   Marginal VFR   IFR   Intensive IFR   Very Intensive IFR
Visi :
Ceiling :
>= 8 km
>= 3000ft
5 to 8 km
1000 to 3000 ft
1500m to 5 km
500 to 1000 ft
800 to 1500m
200 to 500 ft
< 800m
< 200 ft
Symbols :   Thunderstorms  Fog  Heavy snow  Heavy precipitations  Wind > 20 kt






- Airport Elevation : 1954 ft


KCDS - Childress Municipal

CURRENT METAR :
  • 231353Z AUTO 15005KT 10SM -RA OVC090 09/07 A2995 RMK AO2 SLP136 P0002 T00890067

EXPIRED METARs :
  • 231253Z AUTO 15008KT 10SM -RA OVC100 09/06 A2992 RMK AO2 RAB32 SLP124 P0000 T00940061
  • 231153Z AUTO 17006KT 10SM OVC100 10/06 A2992 RMK AO2 RAB1059E23 SLP124 P0000 60000 T01000056 10117 20094 58010

TAF KCDS
Valid from the 23 at 12:00 until the 24 at 12:00 UTC


231206Z 2312/2412 19011KT P6SM -SHRA OVC100
FM232100 19018KT P6SM BKN060
FM232300 20020G30KT P6SM SCT060
FM240300 28020KT P6SM FEW250
FM240900 30017KT P6SM SCT060



MET'MAP, your aeronautical weather chart ! - Copyright ORBIFLY December 2007 - Disclaimer

ORBIFLY MET'MAP TEAM :

Programming & Development : Alexandra Zaïnal
Concept & original design : Baudouin d'Aumeries
Assistance for programming : Marc-Olivier Méhu
Technical & hardware support : Manuel Goepfert

Contact : metmap@orbifly.com




SOURCES & CREDITS :

   NOAA       Earth
Advisory